Address 0x71f22e782e6160906ff182c3322a311fea16d7a4

 
 
Txn Hash Method
Block
From
To
Value [Txn Fee]
0x00aecec69a6d7f08880298efb42121851215fde6ee593d70865312a6861877050x1de9c881110797592021-09-20 13:08:1010 mins ago0x71f22e782e6160906ff182c3322a311fea16d7a4OUT 0xa5329876a292a655e99306e1304000a6cc52084a0 BNB0.000184135
0x2c53a29febe2284216d211423d46670320ad89a9f4ad31253710e5c2d4e8acdf0x1de9c881110796782021-09-20 13:04:0714 mins ago0x71f22e782e6160906ff182c3322a311fea16d7a4OUT 0xa5329876a292a655e99306e1304000a6cc52084a0 BNB0.00018431
0xa71c0f8b6be1bd7ecc2b381f6dbadae3932a6f54fab6075031bd6b9418592b790x1de9c881110796032021-09-20 13:00:2118 mins ago0x71f22e782e6160906ff182c3322a311fea16d7a4OUT 0xa5329876a292a655e99306e1304000a6cc52084a0 BNB0.000202805
0xeb87634c5e9b7c2f97debaa9b0a081c122a25b76973255bf0fba0b83cc4a5e130x1de9c881110794872021-09-20 12:54:2624 mins ago0x71f22e782e6160906ff182c3322a311fea16d7a4OUT 0x99c31826c5621fb30969de789342f2d0f4b6f26d0 BNB0.000212325
0x779d620f2cfc8e47d1c7ea03846ed97561fde5d8d0fef5a8c37435c7bb81c93b0x1de9c881110794662021-09-20 12:53:1825 mins ago0x71f22e782e6160906ff182c3322a311fea16d7a4OUT 0xa5329876a292a655e99306e1304000a6cc52084a0 BNB0.000230125
0xc0cea70942c25e7c7beec5fed3e1f83c02ea3199542e94db9e0dbc9c627bdfc50x1de9c881110792982021-09-20 12:43:5934 mins ago0x71f22e782e6160906ff182c3322a311fea16d7a4OUT 0xa5329876a292a655e99306e1304000a6cc52084a0 BNB0.00073724
0x7145f77a1fdb6cc945535cf73075d1f070d4c7798a7e5970f138a1fa5e97bfedTransfer110792172021-09-20 12:39:5338 mins ago0x71f22e782e6160906ff182c3322a311fea16d7a4SELF0x71f22e782e6160906ff182c3322a311fea16d7a40 BNB0.00011655
0x7da8fba1ca805e2fd9c904e6d5f27440c83933bb90292a6fafdf0c6a222abbf7Transfer110792082021-09-20 12:39:2639 mins ago0x71f22e782e6160906ff182c3322a311fea16d7a4SELF0x71f22e782e6160906ff182c3322a311fea16d7a40 BNB0.00011655
0x46a98f7290052c4a091381c30a239490963faeadce7f95afe026bf02ac67c79d0x1de9c881110791892021-09-20 12:38:2940 mins ago0x71f22e782e6160906ff182c3322a311fea16d7a4OUT 0xa5329876a292a655e99306e1304000a6cc52084a0 BNB0.00018425
0xe115ef48d60675f13ba082c0657f3bdf417bbf67f5b3313d9d1d9048d3d983dd0x1de9c881110791562021-09-20 12:36:5041 mins ago0x71f22e782e6160906ff182c3322a311fea16d7a4OUT 0x99c31826c5621fb30969de789342f2d0f4b6f26d0 BNB0.000441924
0xc5aa065f3d110c873e19d1af3e23442b9e8bc3ed316f4d2f8a30aa3695737d0e0x1de9c881110791192021-09-20 12:34:5943 mins ago0x71f22e782e6160906ff182c3322a311fea16d7a4OUT 0x99c31826c5621fb30969de789342f2d0f4b6f26d0 BNB0.000203255
0x0afd2d92ea12d5bdc822ae6440bcc00833b0d9e48ddfa00f69380b6282038b7c0x1de9c881110787562021-09-20 12:16:501 hr 1 min ago0x71f22e782e6160906ff182c3322a311fea16d7a4OUT 0x99c31826c5621fb30969de789342f2d0f4b6f26d0 BNB0.000230145
0xb47c4c168412e20acf342c6c16aac1ca2b35584856cd0a8600f8f130126913d1Transfer110785452021-09-20 12:06:071 hr 12 mins ago0x71f22e782e6160906ff182c3322a311fea16d7a4SELF0x71f22e782e6160906ff182c3322a311fea16d7a40 BNB0.00011655
0xcb0edde6eaead8c04c25263c0370291c3878f7de732e504030dbdfd8c22f1f71Transfer110784442021-09-20 12:00:401 hr 17 mins ago0x71f22e782e6160906ff182c3322a311fea16d7a4SELF0x71f22e782e6160906ff182c3322a311fea16d7a40 BNB0.00011655
0xb5c66a563479955fae35e75689b809ffce7340491dd8f9234918c399a5b0b3c10x1de9c881110783442021-09-20 11:55:401 hr 22 mins ago0x71f22e782e6160906ff182c3322a311fea16d7a4OUT 0xa5329876a292a655e99306e1304000a6cc52084a0 BNB0.000203325
0x8a271cdd58b16288f3206e90321f5a1372f7104f520ff350bd2a2a20959f1bc10x1de9c881110782322021-09-20 11:50:041 hr 28 mins ago0x71f22e782e6160906ff182c3322a311fea16d7a4OUT 0xa5329876a292a655e99306e1304000a6cc52084a0 BNB0.000203345
0xd80c559e4eb977ec26464e298fcbe5263743ddc9e43aa5778d5cd519fb887345Transfer110781222021-09-20 11:44:341 hr 34 mins ago0x71f22e782e6160906ff182c3322a311fea16d7a4SELF0x71f22e782e6160906ff182c3322a311fea16d7a40 BNB0.00011655
0x0ada79afc6b7b9cf337bae8833dde26a25eeb61721369ee3c187de1b1e82d8a20x1de9c881110778912021-09-20 11:32:541 hr 45 mins ago0x71f22e782e6160906ff182c3322a311fea16d7a4OUT 0xa5329876a292a655e99306e1304000a6cc52084a0 BNB0.00017508
0xb1c9812ba07d4f28a5d871e320650c4f77e057f888c0e2769bfa72b4165dce3e0x1de9c881110778322021-09-20 11:29:561 hr 48 mins ago0x71f22e782e6160906ff182c3322a311fea16d7a4OUT 0x99c31826c5621fb30969de789342f2d0f4b6f26d0 BNB0.0004210056
0x8248e3fd5932ed4f4cb553da4a18b4a66491b4734055fbd6d356443b9f5ba6e80x1de9c881110778072021-09-20 11:28:411 hr 49 mins ago0x71f22e782e6160906ff182c3322a311fea16d7a4OUT 0xa5329876a292a655e99306e1304000a6cc52084a0 BNB0.00018443
0x67eb0fe04e9849f3ab445f328162079f101fce0bd16f0331982c9eedddc1b40f0x1de9c881110775092021-09-20 11:13:472 hrs 4 mins ago0x71f22e782e6160906ff182c3322a311fea16d7a4OUT 0x99c31826c5621fb30969de789342f2d0f4b6f26d0 BNB0.0002347887
0x1847c94a937fb26956a6b3a7a833c1008b27682f7f16a5e58ba15e51bee5c9570x1de9c881110774722021-09-20 11:11:562 hrs 6 mins ago0x71f22e782e6160906ff182c3322a311fea16d7a4OUT 0xa5329876a292a655e99306e1304000a6cc52084a0 BNB0.000265518
0x1969443dfbcda86bfa30a974b4f9c306a3c4549bf4099bab7b5e5b99f76fab090x1de9c881110774062021-09-20 11:08:382 hrs 10 mins ago0x71f22e782e6160906ff182c3322a311fea16d7a4OUT 0xa5329876a292a655e99306e1304000a6cc52084a0 BNB0.00019319
0xa6ccad2b745e3e9045f35b8874ebe2eae5c359c13751d99de21c30044f99f1350x1de9c881110773652021-09-20 11:06:352 hrs 12 mins ago0x71f22e782e6160906ff182c3322a311fea16d7a4OUT 0x99c31826c5621fb30969de789342f2d0f4b6f26d0 BNB0.000212195
0x540b1b3b2b54c808ef55fc5b2b76c7e7eedbf1f2976d1a2b333036f404cd22730x1de9c881110772452021-09-20 11:00:352 hrs 18 mins ago0x71f22e782e6160906ff182c3322a311fea16d7a4OUT 0xa5329876a292a655e99306e1304000a6cc52084a0 BNB0.000270466
[ Download CSV Export 
Parent Txn Hash Block From To Value
Loading

Contract Name:
0 BNB

Compiler Version
0

Optimization Enabled:
0 BNB

Other Settings:
-NA-
Block Transaction Gas Used Reward
Age Block Fee Address BC Fee Address Voting Power Jailed Incoming
Block Uncle Number Difficulty Gas Used Reward
Loading
Loading
Make sure to use the "Vote Down" button for any spammy posts, and the "Vote Up" for interesting conversations.